createdAt,value
2022-11-09T00:03:43.486Z,83.86
2022-11-09T00:08:44.900Z,83.73
2022-11-09T00:13:47.031Z,82.86
2022-11-09T00:18:49.099Z,82.83
2022-11-09T00:23:51.633Z,82.34
2022-11-09T00:28:53.183Z,82.57
2022-11-09T00:33:56.651Z,82.64
2022-11-09T00:39:00.665Z,82.43
2022-11-09T00:44:02.131Z,82.01
2022-11-09T00:49:04.009Z,81.98
2022-11-09T00:54:07.893Z,82.04
2022-11-09T00:59:11.427Z,81.25
2022-11-09T01:04:13.875Z,80.95
2022-11-09T01:09:15.331Z,81.29
2022-11-09T01:14:16.846Z,81.25
2022-11-09T01:19:18.590Z,81.28
2022-11-09T01:24:20.080Z,80.89
2022-11-09T01:29:22.482Z,81.10
2022-11-09T01:34:23.902Z,81.14
2022-11-09T01:39:25.375Z,80.89
2022-11-09T01:44:28.147Z,81.62
2022-11-09T01:49:29.503Z,81.77
2022-11-09T01:54:39.427Z,81.96
2022-11-09T01:59:45.161Z,81.86
2022-11-09T02:04:55.569Z,82.44
2022-11-09T02:10:06.899Z,82.50
2022-11-09T02:15:11.143Z,82.31
2022-11-09T02:20:15.174Z,82.15
2022-11-09T02:25:17.591Z,81.92
2022-11-09T02:30:20.931Z,82.35
2022-11-09T02:35:23.460Z,82.08
2022-11-09T02:40:37.656Z,82.51
2022-11-09T02:45:40.220Z,81.92
2022-11-09T02:50:41.755Z,81.66
2022-11-09T02:55:43.244Z,82.37
2022-11-09T03:00:45.027Z,82.33
2022-11-09T03:05:47.709Z,81.93
2022-11-09T03:10:49.353Z,82.44
2022-11-09T03:15:51.238Z,82.85
2022-11-09T03:20:52.754Z,83.04
2022-11-09T03:25:54.215Z,82.39
2022-11-09T03:30:56.439Z,82.80
2022-11-09T03:35:58.266Z,83.10
2022-11-09T03:41:01.794Z,83.14
2022-11-09T03:46:03.958Z,83.08
2022-11-09T03:51:05.529Z,82.62
2022-11-09T03:56:07.265Z,83.28
2022-11-09T04:01:08.685Z,83.29
2022-11-09T04:06:10.118Z,83.25
2022-11-09T04:11:11.570Z,83.08
2022-11-09T04:16:13.118Z,83.18
2022-11-09T04:21:14.724Z,83.10
2022-11-09T04:26:16.245Z,83.33
2022-11-09T04:31:17.661Z,83.35
2022-11-09T04:36:19.144Z,84.53
2022-11-09T04:41:20.744Z,86.50
2022-11-09T04:46:22.254Z,87.29
2022-11-09T04:51:23.674Z,87.27
2022-11-09T04:56:25.350Z,86.83
2022-11-09T05:01:26.773Z,87.65
2022-11-09T05:06:34.059Z,86.98
2022-11-09T05:11:36.490Z,88.07
2022-11-09T05:16:37.942Z,88.64
2022-11-09T05:21:39.400Z,88.52
2022-11-09T05:26:41.955Z,88.73
2022-11-09T05:31:51.804Z,88.51
2022-11-09T05:36:53.782Z,88.22
2022-11-09T05:41:55.194Z,88.00
2022-11-09T05:46:56.590Z,87.89
2022-11-09T05:51:58.040Z,88.43
2022-11-09T05:57:01.493Z,88.20
2022-11-09T06:02:03.175Z,88.22
2022-11-09T06:07:04.835Z,88.08
2022-11-09T06:12:07.097Z,87.63
2022-11-09T06:17:08.553Z,86.92
2022-11-09T06:22:10.225Z,86.31
2022-11-09T06:27:11.664Z,87.49
2022-11-09T06:32:13.064Z,88.69
2022-11-09T06:37:16.930Z,88.51
2022-11-09T06:42:18.567Z,89.82
2022-11-09T06:47:20.141Z,89.84
2022-11-09T06:52:21.607Z,90.22
2022-11-09T06:57:23.041Z,91.25
2022-11-09T07:02:24.536Z,91.25
2022-11-09T07:07:28.259Z,91.50
2022-11-09T07:12:29.931Z,91.98
2022-11-09T07:17:32.966Z,91.91
2022-11-09T07:22:39.179Z,91.32
2022-11-09T07:27:40.655Z,92.32
2022-11-09T07:38:04.377Z,90.85
2022-11-09T07:43:06.830Z,91.21
2022-11-09T07:48:11.544Z,91.62
2022-11-09T07:53:14.911Z,91.21
2022-11-09T07:58:16.320Z,91.13
2022-11-09T08:03:24.421Z,91.74
2022-11-09T08:08:26.164Z,91.06
2022-11-09T08:13:27.687Z,91.09
2022-11-09T08:18:29.151Z,90.68
2022-11-09T08:23:30.812Z,90.79
2022-11-09T08:28:33.463Z,90.48
2022-11-09T08:33:37.904Z,89.95
2022-11-09T08:38:39.879Z,88.39
2022-11-09T08:43:41.360Z,87.00
2022-11-09T08:48:42.765Z,86.96
2022-11-09T08:53:44.230Z,86.61
2022-11-09T08:58:45.954Z,86.56
2022-11-09T09:03:47.455Z,86.01
2022-11-09T09:08:48.852Z,84.42
2022-11-09T09:13:50.318Z,83.08
2022-11-09T09:18:51.841Z,80.86
2022-11-09T09:23:53.282Z,80.38
2022-11-09T09:28:54.685Z,80.68
2022-11-09T09:33:56.395Z,80.07
2022-11-09T09:38:58.582Z,78.57
2022-11-09T09:44:13.305Z,77.60
2022-11-09T09:49:21.747Z,76.66
2022-11-09T09:54:48.793Z,76.35
2022-11-09T09:59:53.515Z,75.23
2022-11-09T10:04:58.179Z,74.66
2022-11-09T10:10:17.846Z,74.51
2022-11-09T10:15:33.740Z,74.18
2022-11-09T10:20:52.828Z,74.02
2022-11-09T10:26:05.560Z,74.07
2022-11-09T10:31:19.630Z,73.43
2022-11-09T10:36:33.776Z,72.99
2022-11-09T10:41:40.609Z,72.63
2022-11-09T10:47:10.014Z,73.12
2022-11-09T10:52:44.198Z,72.58
2022-11-09T10:58:28.533Z,72.86
2022-11-09T11:03:53.549Z,72.07
2022-11-09T11:09:16.614Z,71.52
2022-11-09T11:14:42.954Z,70.80
2022-11-09T11:20:27.769Z,70.31
2022-11-09T11:25:53.710Z,69.87
2022-11-09T11:31:23.147Z,70.27
2022-11-09T11:37:07.930Z,69.82
2022-11-09T11:42:51.870Z,69.77
2022-11-09T11:48:48.320Z,69.63
2022-11-09T11:54:18.467Z,68.97
2022-11-09T11:59:54.170Z,68.37
2022-11-09T12:05:51.709Z,67.99
2022-11-09T12:11:39.999Z,67.26
2022-11-09T12:17:44.002Z,66.13
2022-11-09T12:23:22.988Z,66.46
2022-11-09T12:29:09.228Z,66.32
2022-11-09T12:34:56.843Z,67.29
2022-11-09T12:40:28.065Z,67.50
2022-11-09T12:45:51.159Z,67.13
2022-11-09T12:51:11.220Z,66.86
2022-11-09T12:56:36.338Z,66.41
2022-11-09T13:01:59.191Z,68.42
2022-11-09T13:07:31.176Z,65.56
2022-11-09T13:13:02.736Z,66.12
2022-11-09T13:18:35.650Z,66.93
2022-11-09T13:24:02.897Z,68.17
2022-11-09T13:29:46.834Z,67.40
2022-11-09T13:35:32.571Z,66.00
2022-11-09T13:40:56.090Z,64.82
2022-11-09T13:46:26.317Z,64.53
2022-11-09T13:51:48.103Z,65.20
2022-11-09T13:57:10.723Z,65.81
2022-11-09T14:02:30.910Z,66.66
2022-11-09T14:07:53.262Z,67.61
2022-11-09T14:13:42.052Z,67.26
2022-11-09T14:19:25.170Z,67.75
2022-11-09T14:24:46.285Z,69.37
2022-11-09T14:30:20.620Z,77.89
2022-11-09T14:35:40.619Z,81.81
2022-11-09T14:41:00.748Z,86.33
2022-11-09T14:46:25.510Z,84.97
2022-11-09T14:51:45.411Z,85.88
2022-11-09T14:57:06.214Z,87.66
2022-11-09T15:02:26.530Z,87.49
2022-11-09T15:07:50.314Z,86.77
2022-11-09T15:13:10.502Z,86.26
2022-11-09T15:18:34.557Z,85.70
2022-11-09T15:24:09.618Z,86.46
2022-11-09T15:29:39.396Z,85.91
2022-11-09T15:34:59.718Z,85.38
2022-11-09T15:40:23.031Z,86.71
2022-11-09T15:45:43.378Z,91.90
2022-11-09T15:51:03.775Z,93.05
2022-11-09T15:56:24.569Z,92.36
2022-11-09T16:01:44.668Z,89.26
2022-11-09T16:07:06.042Z,89.98
2022-11-09T16:12:25.905Z,90.38
2022-11-09T16:17:49.492Z,90.45
2022-11-09T16:23:09.869Z,89.68
2022-11-09T16:28:30.088Z,88.13
2022-11-09T16:33:50.177Z,86.86
2022-11-09T16:39:16.907Z,86.66
2022-11-09T16:44:40.954Z,85.79
2022-11-09T16:50:00.925Z,86.15
2022-11-09T16:55:20.944Z,83.91
2022-11-09T17:01:08.867Z,84.97
2022-11-09T17:06:25.344Z,82.57
2022-11-09T17:11:45.520Z,80.98
2022-11-09T17:17:05.699Z,82.20
2022-11-09T17:22:25.628Z,85.24
2022-11-09T17:27:45.650Z,85.92
2022-11-09T17:33:05.732Z,87.24
2022-11-09T17:38:25.890Z,87.86
2022-11-09T17:43:47.023Z,87.60
2022-11-09T17:49:09.950Z,87.24
2022-11-09T17:54:36.448Z,86.96
2022-11-09T17:59:57.050Z,87.20
2022-11-09T18:05:16.902Z,87.70
2022-11-09T18:10:38.883Z,87.52
2022-11-09T18:15:59.182Z,87.82
2022-11-09T18:21:19.635Z,88.19
2022-11-09T18:26:39.634Z,88.60
2022-11-09T18:31:59.807Z,89.49
2022-11-09T18:37:19.945Z,89.69
2022-11-09T18:42:40.462Z,89.04
2022-11-09T18:48:00.567Z,89.74
2022-11-09T18:53:22.365Z,88.03
2022-11-09T18:58:43.054Z,88.33
2022-11-09T19:04:03.255Z,88.52
2022-11-09T19:09:29.455Z,87.71
2022-11-09T19:14:49.585Z,87.39
2022-11-09T19:20:10.553Z,87.27
2022-11-09T19:25:30.814Z,86.93
2022-11-09T19:30:50.888Z,86.47
2022-11-09T19:36:41.226Z,86.35
2022-11-09T19:41:51.439Z,86.71
2022-11-09T19:47:11.466Z,86.81
2022-11-09T19:52:31.916Z,87.72
2022-11-09T19:57:52.223Z,88.36
2022-11-09T20:03:12.223Z,88.06
2022-11-09T20:08:34.169Z,88.70
2022-11-09T20:13:54.258Z,88.13
2022-11-09T20:19:14.555Z,88.25
2022-11-09T20:24:34.459Z,88.04
2022-11-09T20:29:55.204Z,88.03
2022-11-09T20:35:15.650Z,87.65
2022-11-09T20:40:35.891Z,87.13
2022-11-09T20:46:02.174Z,87.87
2022-11-09T20:51:23.973Z,87.43
2022-11-09T20:56:45.337Z,88.18
2022-11-09T21:02:05.345Z,88.12
2022-11-09T21:07:25.556Z,88.66
2022-11-09T21:12:45.557Z,88.72
2022-11-09T21:18:07.089Z,89.18
2022-11-09T21:23:27.134Z,89.24
2022-11-09T21:29:05.676Z,89.46
2022-11-09T21:34:26.335Z,89.55
2022-11-09T21:39:46.668Z,89.62
2022-11-09T21:45:07.371Z,90.48
2022-11-09T21:50:27.628Z,90.18
2022-11-09T21:55:47.696Z,90.21
2022-11-09T22:01:10.450Z,90.61
2022-11-09T22:06:30.708Z,89.95
2022-11-09T22:12:08.850Z,90.17
2022-11-09T22:17:29.194Z,90.43
2022-11-09T22:22:49.505Z,90.55
2022-11-09T22:28:09.289Z,90.75
2022-11-09T22:33:31.083Z,91.17
2022-11-09T22:38:51.528Z,90.91
2022-11-09T22:44:12.992Z,90.53
2022-11-09T22:49:34.141Z,91.20
2022-11-09T22:54:54.361Z,90.85
2022-11-09T23:00:15.999Z,91.02
2022-11-09T23:05:35.959Z,90.82
2022-11-09T23:10:56.455Z,90.43
2022-11-09T23:16:17.441Z,90.62
2022-11-09T23:21:37.980Z,90.23
2022-11-09T23:26:58.033Z,90.08
2022-11-09T23:32:18.153Z,89.90
2022-11-09T23:37:38.608Z,91.06
2022-11-09T23:43:09.783Z,90.75
2022-11-09T23:48:29.601Z,91.55
2022-11-09T23:53:49.595Z,91.37
2022-11-09T23:59:09.776Z,92.19
